createdAt,value
2023-03-18T00:01:23.399Z,17.40
2023-03-18T00:03:56.288Z,16.60
2023-03-18T00:06:30.313Z,16.10
2023-03-18T00:09:01.050Z,16.60
2023-03-18T00:11:31.666Z,17.90
2023-03-18T00:14:14.256Z,16.60
2023-03-18T00:16:55.734Z,14.70
2023-03-18T00:19:27.054Z,16.40
2023-03-18T00:22:09.380Z,15.20
2023-03-18T00:24:44.314Z,14.40
2023-03-18T00:27:13.699Z,15.80
2023-03-18T00:29:55.873Z,15.90
2023-03-18T00:32:34.199Z,15.70
2023-03-18T00:35:15.022Z,15.40
2023-03-18T00:38:06.524Z,15.80
2023-03-18T00:40:53.307Z,16.40
2023-03-18T00:43:51.967Z,15.70
2023-03-18T00:46:40.793Z,15.10
2023-03-18T00:49:18.952Z,15.20
2023-03-18T00:51:52.987Z,15.70
2023-03-18T00:54:33.057Z,14.40
2023-03-18T00:57:04.254Z,15.70
2023-03-18T00:59:33.136Z,16.60
2023-03-18T01:02:09.491Z,14.10
2023-03-18T01:04:37.951Z,15.80
2023-03-18T01:07:09.168Z,15.80
2023-03-18T01:09:47.574Z,16.80
2023-03-18T01:12:25.792Z,16.70
2023-03-18T01:14:59.058Z,16.90
2023-03-18T01:17:38.577Z,18.10
2023-03-18T01:20:14.636Z,15.40
2023-03-18T01:22:50.215Z,16.00
2023-03-18T01:25:20.167Z,15.60
2023-03-18T01:27:52.124Z,17.80
2023-03-18T01:30:23.456Z,17.90
2023-03-18T01:32:57.701Z,17.00
2023-03-18T01:35:32.707Z,16.40
2023-03-18T01:38:05.722Z,16.90
2023-03-18T01:40:44.912Z,15.40
2023-03-18T01:43:32.098Z,16.60
2023-03-18T01:46:40.412Z,16.70
2023-03-18T01:49:16.380Z,15.50
2023-03-18T01:52:02.793Z,16.80
2023-03-18T01:54:44.832Z,16.10
2023-03-18T01:57:25.181Z,15.90
2023-03-18T01:59:57.905Z,16.20
2023-03-18T02:02:57.451Z,15.40
2023-03-18T02:05:29.518Z,15.80
2023-03-18T02:08:05.446Z,16.40
2023-03-18T02:10:45.588Z,15.70
2023-03-18T02:13:20.414Z,16.30
2023-03-18T02:16:13.680Z,16.90
2023-03-18T02:19:07.163Z,16.90
2023-03-18T02:22:27.298Z,18.60
2023-03-18T02:25:37.662Z,18.50
2023-03-18T02:28:21.329Z,18.80
2023-03-18T02:31:07.397Z,18.30
2023-03-18T02:33:43.379Z,17.30
2023-03-18T02:36:23.831Z,16.30
2023-03-18T02:39:00.338Z,20.40
2023-03-18T02:41:39.187Z,18.30
2023-03-18T02:44:17.488Z,19.60
2023-03-18T02:47:12.742Z,20.20
2023-03-18T02:49:49.683Z,18.40
2023-03-18T02:52:28.625Z,20.90
2023-03-18T02:54:59.002Z,20.50
2023-03-18T02:57:28.299Z,18.00
2023-03-18T03:00:03.186Z,19.60
2023-03-18T03:02:50.654Z,18.10
2023-03-18T03:05:36.161Z,18.80
2023-03-18T03:08:10.850Z,19.70
2023-03-18T03:10:57.675Z,18.00
2023-03-18T03:13:31.174Z,18.80
2023-03-18T03:16:06.938Z,18.80
2023-03-18T03:18:41.995Z,19.20
2023-03-18T03:21:18.454Z,19.50
2023-03-18T03:23:54.817Z,19.50
2023-03-18T03:26:34.883Z,18.60
2023-03-18T03:29:12.912Z,18.20
2023-03-18T03:31:48.001Z,18.60
2023-03-18T03:34:28.283Z,19.70
2023-03-18T03:37:28.867Z,20.80
2023-03-18T03:40:20.115Z,17.20
2023-03-18T03:42:54.834Z,18.40
2023-03-18T03:45:34.860Z,19.20
2023-03-18T03:48:15.467Z,25.70
2023-03-18T03:50:50.288Z,25.10
2023-03-18T03:55:47.443Z,22.20
2023-03-18T03:58:16.335Z,22.70
2023-03-18T04:00:45.800Z,25.40
2023-03-18T04:03:33.702Z,23.60
2023-03-18T04:06:17.140Z,30.50
2023-03-18T04:08:56.615Z,28.00
2023-03-18T04:11:31.963Z,30.70
2023-03-18T04:14:03.456Z,24.10
2023-03-18T04:16:37.367Z,21.90
2023-03-18T04:19:06.969Z,22.40
2023-03-18T04:21:45.764Z,21.50
2023-03-18T04:24:29.675Z,22.30
2023-03-18T04:27:05.358Z,30.00
2023-03-18T04:29:43.878Z,187.60
2023-03-18T04:32:14.194Z,43.30
2023-03-18T04:34:47.048Z,41.70
2023-03-18T04:37:45.462Z,27.50
2023-03-18T04:40:18.119Z,28.10
2023-03-18T04:42:48.861Z,30.40
2023-03-18T04:45:24.862Z,27.40
2023-03-18T04:47:56.374Z,27.00
2023-03-18T04:50:29.449Z,32.80
2023-03-18T04:53:03.177Z,28.00
2023-03-18T04:55:38.584Z,29.30
2023-03-18T04:58:19.540Z,26.80
2023-03-18T05:01:06.618Z,24.50
2023-03-18T05:03:43.741Z,23.60
2023-03-18T05:06:30.228Z,26.80
2023-03-18T05:09:08.873Z,23.40
2023-03-18T05:11:40.738Z,21.90
2023-03-18T05:14:34.290Z,19.10
2023-03-18T05:17:09.396Z,19.30
2023-03-18T05:19:47.185Z,21.80
2023-03-18T05:22:27.304Z,20.00
2023-03-18T05:25:17.787Z,19.50
2023-03-18T05:27:55.048Z,20.60
2023-03-18T05:30:31.364Z,19.80
2023-03-18T05:33:09.705Z,19.60
2023-03-18T05:35:49.987Z,19.70
2023-03-18T05:38:21.320Z,20.40
2023-03-18T05:40:53.541Z,19.80
2023-03-18T05:43:44.906Z,22.10
2023-03-18T05:46:32.802Z,20.50
2023-03-18T05:49:37.580Z,20.30
2023-03-18T05:52:39.331Z,21.60
2023-03-18T05:55:26.381Z,19.80
2023-03-18T05:58:14.565Z,21.10
2023-03-18T06:00:48.148Z,20.90
2023-03-18T06:03:21.783Z,23.40
2023-03-18T06:05:50.579Z,23.10
2023-03-18T06:08:19.082Z,21.60
2023-03-18T06:11:01.366Z,20.00
2023-03-18T06:13:45.377Z,18.90
2023-03-18T06:16:36.230Z,24.60
2023-03-18T06:19:08.050Z,21.50
2023-03-18T06:21:39.182Z,20.80
2023-03-18T06:24:13.015Z,21.90
2023-03-18T06:26:44.428Z,19.50
2023-03-18T06:29:27.664Z,27.90
2023-03-18T06:32:03.861Z,23.20
2023-03-18T06:34:42.573Z,20.20
2023-03-18T06:37:18.784Z,19.40
2023-03-18T06:39:52.187Z,21.60
2023-03-18T06:42:23.584Z,26.40
2023-03-18T06:45:07.653Z,20.00
2023-03-18T06:47:53.556Z,17.70
2023-03-18T06:50:31.818Z,18.10
2023-03-18T06:53:03.190Z,18.00
2023-03-18T06:58:05.646Z,17.80
2023-03-18T07:00:49.236Z,16.90
2023-03-18T07:03:22.820Z,21.60
2023-03-18T07:05:55.079Z,21.50
2023-03-18T07:08:24.338Z,22.00
2023-03-18T07:10:57.793Z,19.70
2023-03-18T07:13:30.516Z,19.20
2023-03-18T07:16:01.719Z,16.70
2023-03-18T07:18:37.319Z,16.70
2023-03-18T07:21:06.264Z,16.20
2023-03-18T07:23:33.948Z,19.90
2023-03-18T07:26:01.915Z,18.40
2023-03-18T07:28:29.766Z,17.70
2023-03-18T07:30:57.722Z,16.90
2023-03-18T07:33:26.781Z,16.90
2023-03-18T07:35:57.821Z,16.50
2023-03-18T07:38:27.066Z,17.70
2023-03-18T07:40:56.168Z,16.30
2023-03-18T07:43:28.591Z,17.00
2023-03-18T07:46:05.321Z,15.60
2023-03-18T07:48:34.640Z,16.90
2023-03-18T07:51:19.367Z,16.40
2023-03-18T07:53:53.657Z,18.00
2023-03-18T07:56:30.205Z,16.30
2023-03-18T07:59:09.999Z,16.80
2023-03-18T08:01:43.441Z,13.90
2023-03-18T08:04:14.558Z,13.20
2023-03-18T08:06:49.161Z,14.40
2023-03-18T08:09:31.018Z,18.70
2023-03-18T08:12:07.258Z,12.60
2023-03-18T08:14:43.373Z,13.10
2023-03-18T08:17:20.823Z,11.90
2023-03-18T08:20:02.789Z,11.90
2023-03-18T08:25:10.208Z,13.20
2023-03-18T08:27:42.828Z,12.10
2023-03-18T08:30:20.942Z,13.20
2023-03-18T08:33:01.221Z,13.30
2023-03-18T08:35:54.088Z,11.70
2023-03-18T08:38:33.034Z,10.90
2023-03-18T08:41:09.902Z,10.00
2023-03-18T08:43:44.747Z,11.60
2023-03-18T08:46:18.898Z,10.50
2023-03-18T08:48:59.886Z,11.90
2023-03-18T08:51:38.461Z,11.30
2023-03-18T08:54:16.845Z,14.70
2023-03-18T08:56:52.327Z,16.30
2023-03-18T08:59:52.848Z,15.90
2023-03-18T09:02:27.304Z,11.00
2023-03-18T09:07:32.257Z,12.30
2023-03-18T09:10:04.291Z,10.80
2023-03-18T09:12:39.680Z,8.60
2023-03-18T09:15:11.722Z,10.40
2023-03-18T09:18:07.953Z,9.90
2023-03-18T09:20:40.773Z,10.10
2023-03-18T09:23:20.065Z,8.20
2023-03-18T09:25:59.813Z,17.70
2023-03-18T09:28:33.476Z,11.10
2023-03-18T09:31:02.299Z,10.00
2023-03-18T09:33:43.846Z,9.20
2023-03-18T09:36:15.551Z,15.80
2023-03-18T09:38:43.845Z,8.70
2023-03-18T09:41:12.759Z,8.80
2023-03-18T09:44:24.826Z,9.00
2023-03-18T09:47:26.919Z,9.20
2023-03-18T09:50:15.289Z,8.40
2023-03-18T09:53:24.671Z,10.50
2023-03-18T09:56:02.396Z,7.20
2023-03-18T09:58:49.960Z,6.50
2023-03-18T10:04:16.764Z,6.80
2023-03-18T10:06:55.196Z,8.00
2023-03-18T10:09:59.067Z,8.30
2023-03-18T10:12:59.121Z,9.10
2023-03-18T10:15:48.800Z,8.70
2023-03-18T10:18:39.230Z,7.00
2023-03-18T10:21:34.720Z,8.60
2023-03-18T10:24:29.180Z,8.70
2023-03-18T10:27:18.893Z,7.40
2023-03-18T10:30:03.583Z,7.90
2023-03-18T10:33:01.405Z,8.50
2023-03-18T10:35:43.394Z,7.20
2023-03-18T10:38:44.493Z,10.80
2023-03-18T10:41:46.032Z,9.60
2023-03-18T10:44:34.042Z,7.20
2023-03-18T10:47:45.426Z,7.50
2023-03-18T10:50:23.885Z,8.50
2023-03-18T10:53:48.541Z,9.80
2023-03-18T10:56:20.736Z,8.10
2023-03-18T10:58:56.065Z,7.60
2023-03-18T11:01:35.345Z,7.60
2023-03-18T11:04:18.779Z,7.80
2023-03-18T11:06:58.518Z,7.30
2023-03-18T11:09:42.965Z,8.10
2023-03-18T11:12:31.034Z,15.40
2023-03-18T11:15:14.237Z,10.60
2023-03-18T11:18:07.043Z,8.10
2023-03-18T11:20:47.159Z,7.60
2023-03-18T11:23:49.344Z,9.10
2023-03-18T11:26:28.255Z,8.20
2023-03-18T11:29:00.349Z,7.80
2023-03-18T11:31:55.606Z,8.10
2023-03-18T11:34:31.918Z,9.20
2023-03-18T11:37:11.568Z,8.10
2023-03-18T11:39:48.249Z,8.00
2023-03-18T11:42:24.177Z,8.40
2023-03-18T11:44:59.223Z,8.30
2023-03-18T11:47:38.884Z,7.70
2023-03-18T11:50:31.237Z,9.50
2023-03-18T11:53:49.101Z,8.40
2023-03-18T11:56:37.066Z,8.70
2023-03-18T11:59:33.365Z,8.50
2023-03-18T12:02:28.656Z,8.30
2023-03-18T12:05:13.568Z,8.80
2023-03-18T12:08:14.955Z,9.00
2023-03-18T12:11:05.584Z,8.80
2023-03-18T12:14:02.165Z,10.30
2023-03-18T12:16:44.514Z,17.60
2023-03-18T12:19:50.271Z,12.30
2023-03-18T12:22:42.797Z,14.20
2023-03-18T12:25:30.185Z,11.40
2023-03-18T12:29:01.819Z,9.80
2023-03-18T12:31:50.524Z,8.50
2023-03-18T12:38:14.525Z,11.00
2023-03-18T12:41:39.481Z,9.90
2023-03-18T12:44:38.397Z,9.60
2023-03-18T12:47:22.257Z,8.30
2023-03-18T12:50:21.637Z,15.30
2023-03-18T12:53:20.630Z,10.80
2023-03-18T12:55:58.445Z,9.00
2023-03-18T12:58:38.775Z,8.80
2023-03-18T13:01:30.305Z,9.10
2023-03-18T13:04:08.093Z,9.30
2023-03-18T13:07:18.244Z,7.70
2023-03-18T13:10:12.775Z,9.20
2023-03-18T13:12:54.376Z,9.90
2023-03-18T13:15:50.851Z,8.90
2023-03-18T13:18:55.701Z,10.10
2023-03-18T13:21:51.618Z,8.80
2023-03-18T13:24:58.490Z,8.80
2023-03-18T13:28:12.717Z,8.80
2023-03-18T13:31:49.532Z,7.80
2023-03-18T13:34:53.802Z,8.10
2023-03-18T13:37:51.090Z,8.50
2023-03-18T13:41:06.750Z,8.80
2023-03-18T13:44:24.780Z,8.50
2023-03-18T13:47:35.752Z,9.70
2023-03-18T13:50:40.388Z,10.30
2023-03-18T13:54:18.577Z,9.60
2023-03-18T13:57:29.052Z,8.70
2023-03-18T14:27:06.352Z,8.20
2023-03-18T14:29:50.252Z,8.30
2023-03-18T14:32:47.997Z,9.80
2023-03-18T14:35:50.469Z,7.60
2023-03-18T14:41:38.726Z,11.20
2023-03-18T14:44:34.062Z,13.70
2023-03-18T14:47:35.914Z,7.90
2023-03-18T14:50:29.250Z,6.60
2023-03-18T14:53:17.448Z,7.80
2023-03-18T14:55:54.558Z,7.60
2023-03-18T14:58:31.526Z,8.40
2023-03-18T15:01:30.652Z,10.40
2023-03-18T15:04:01.437Z,7.60
2023-03-18T15:06:32.364Z,7.70
2023-03-18T15:09:23.806Z,7.20
2023-03-18T15:11:59.418Z,7.10
2023-03-18T15:14:33.993Z,6.90
2023-03-18T15:17:20.835Z,44.40
2023-03-18T15:19:58.814Z,29.90
2023-03-18T15:22:35.576Z,17.60
2023-03-18T15:25:24.676Z,15.90
2023-03-18T15:27:58.829Z,13.60
2023-03-18T15:30:33.601Z,10.60
2023-03-18T15:33:16.558Z,10.40
2023-03-18T15:35:56.210Z,9.00
2023-03-18T15:38:31.002Z,12.10
2023-03-18T15:41:11.978Z,10.70
2023-03-18T15:43:45.602Z,11.30
2023-03-18T15:46:32.349Z,11.20
2023-03-18T15:51:44.791Z,14.70
2023-03-18T15:54:28.238Z,15.10
2023-03-18T15:57:02.099Z,9.20
2023-03-18T16:00:12.470Z,9.90
2023-03-18T16:02:57.030Z,9.80
2023-03-18T16:05:29.524Z,9.20
2023-03-18T16:08:03.898Z,10.30
2023-03-18T16:10:42.350Z,9.50
2023-03-18T16:13:29.777Z,10.10
2023-03-18T16:16:09.214Z,11.50
2023-03-18T16:18:42.895Z,18.20
2023-03-18T16:21:14.897Z,11.60
2023-03-18T16:23:48.960Z,9.70
2023-03-18T16:26:21.498Z,10.30
2023-03-18T16:28:51.124Z,10.80
2023-03-18T16:31:19.558Z,9.60
2023-03-18T16:33:52.325Z,14.40
2023-03-18T16:36:34.411Z,13.30
2023-03-18T16:39:36.206Z,15.10
2023-03-18T16:42:17.144Z,15.50
2023-03-18T16:44:54.155Z,16.60
2023-03-18T16:47:28.480Z,31.00
2023-03-18T16:52:40.599Z,25.70
2023-03-18T16:55:22.428Z,18.90
2023-03-18T16:58:02.804Z,19.80
2023-03-18T17:00:33.324Z,19.00
2023-03-18T17:03:11.384Z,18.70
2023-03-18T17:05:40.579Z,30.30
2023-03-18T17:08:16.328Z,30.90
2023-03-18T17:11:05.535Z,22.80
2023-03-18T17:13:39.912Z,22.80
2023-03-18T17:16:25.728Z,22.90
2023-03-18T17:18:55.915Z,20.50
2023-03-18T17:21:49.344Z,22.10
2023-03-18T17:24:22.789Z,23.80
2023-03-18T17:26:54.883Z,31.40
2023-03-18T17:29:30.248Z,24.30
2023-03-18T17:32:01.678Z,36.40
2023-03-18T17:34:30.232Z,47.20
2023-03-18T17:36:58.856Z,36.00
2023-03-18T17:39:27.825Z,79.60
2023-03-18T17:41:55.985Z,35.60
2023-03-18T17:44:32.472Z,26.60
2023-03-18T17:47:10.327Z,23.70
2023-03-18T17:49:46.579Z,45.70
2023-03-18T17:52:21.976Z,27.20
2023-03-18T17:55:02.890Z,29.30
2023-03-18T17:57:31.665Z,37.10
2023-03-18T18:00:19.165Z,35.50
2023-03-18T18:03:00.595Z,39.30
2023-03-18T18:05:30.384Z,35.10
2023-03-18T18:08:01.580Z,44.40
2023-03-18T18:10:31.186Z,69.70
2023-03-18T18:13:02.354Z,58.90
2023-03-18T18:15:32.566Z,46.00
2023-03-18T18:18:03.040Z,45.90
2023-03-18T18:20:36.721Z,40.60
2023-03-18T18:23:22.141Z,57.80
2023-03-18T18:25:52.876Z,47.10
2023-03-18T18:28:29.029Z,50.90
2023-03-18T18:30:57.485Z,48.60
2023-03-18T18:33:26.589Z,47.40
2023-03-18T18:35:55.957Z,47.60
2023-03-18T18:38:31.348Z,41.50
2023-03-18T18:41:07.741Z,34.80
2023-03-18T18:43:39.307Z,31.60
2023-03-18T18:46:19.284Z,30.20
2023-03-18T18:48:56.380Z,27.80
2023-03-18T18:51:33.877Z,28.40
2023-03-18T18:54:09.883Z,27.50
2023-03-18T18:56:42.534Z,24.80
2023-03-18T18:59:27.432Z,25.70
2023-03-18T19:02:00.654Z,26.80
2023-03-18T19:04:29.831Z,25.30
2023-03-18T19:07:09.667Z,27.30
2023-03-18T19:09:45.183Z,27.30
2023-03-18T19:12:19.041Z,31.10
2023-03-18T19:14:50.730Z,33.00
2023-03-18T19:17:21.717Z,34.80
2023-03-18T19:19:54.270Z,25.90
2023-03-18T19:22:23.217Z,28.30
2023-03-18T19:24:53.577Z,26.80
2023-03-18T19:27:32.763Z,25.00
2023-03-18T19:30:16.326Z,25.60
2023-03-18T19:32:49.534Z,23.40
2023-03-18T19:35:23.573Z,23.20
2023-03-18T19:37:52.177Z,23.30
2023-03-18T19:40:34.027Z,25.80
2023-03-18T19:43:16.122Z,23.50
2023-03-18T19:45:51.924Z,24.50
2023-03-18T19:48:24.893Z,28.60
2023-03-18T19:50:57.895Z,27.90
2023-03-18T19:53:27.589Z,28.00
2023-03-18T19:55:56.445Z,28.60
2023-03-18T19:58:27.485Z,27.90
2023-03-18T20:01:01.148Z,27.40
2023-03-18T20:03:29.755Z,26.70
2023-03-18T20:06:00.337Z,28.60
2023-03-18T20:08:28.599Z,31.00
2023-03-18T20:11:01.951Z,30.30
2023-03-18T20:13:31.167Z,31.30
2023-03-18T20:16:00.271Z,32.70
2023-03-18T20:18:28.680Z,33.30
2023-03-18T20:20:58.706Z,36.30
2023-03-18T20:23:29.767Z,36.20
2023-03-18T20:26:02.768Z,33.90
2023-03-18T20:28:30.844Z,34.10
2023-03-18T20:31:00.322Z,36.20
2023-03-18T20:33:28.616Z,37.60
2023-03-18T20:35:57.519Z,37.90
2023-03-18T20:38:40.642Z,37.40
2023-03-18T20:41:21.888Z,36.90
2023-03-18T20:43:57.450Z,40.10
2023-03-18T20:46:30.747Z,40.70
2023-03-18T20:49:04.613Z,45.40
2023-03-18T20:51:41.389Z,42.20
2023-03-18T20:54:21.606Z,41.90
2023-03-18T20:56:50.111Z,41.60
2023-03-18T20:59:21.529Z,46.90
2023-03-18T21:01:53.515Z,46.00
2023-03-18T21:04:26.823Z,46.80
2023-03-18T21:06:55.521Z,42.10
2023-03-18T21:09:26.888Z,42.90
2023-03-18T21:11:55.402Z,43.30
2023-03-18T21:14:23.593Z,42.00
2023-03-18T21:16:54.468Z,40.80
2023-03-18T21:19:22.892Z,42.10
2023-03-18T21:21:53.245Z,39.80
2023-03-18T21:24:27.153Z,38.30
2023-03-18T21:27:04.084Z,37.80
2023-03-18T21:29:33.680Z,38.00
2023-03-18T21:32:04.310Z,39.50
2023-03-18T21:34:32.200Z,37.60
2023-03-18T21:37:00.466Z,38.90
2023-03-18T21:39:29.153Z,38.90
2023-03-18T21:41:59.500Z,35.20
2023-03-18T21:44:27.567Z,37.10
2023-03-18T21:46:55.632Z,40.50
2023-03-18T21:49:28.198Z,37.30
2023-03-18T21:51:57.062Z,41.10
2023-03-18T21:54:25.505Z,41.10
2023-03-18T21:56:58.813Z,42.70
2023-03-18T21:59:27.057Z,45.30
2023-03-18T22:01:55.427Z,44.30
2023-03-18T22:04:25.763Z,45.00
2023-03-18T22:06:56.207Z,39.30
2023-03-18T22:09:28.007Z,35.80
2023-03-18T22:11:57.243Z,32.20
2023-03-18T22:14:25.362Z,31.30
2023-03-18T22:16:53.460Z,31.70
2023-03-18T22:19:24.762Z,31.40
2023-03-18T22:21:53.166Z,31.70
2023-03-18T22:24:21.456Z,32.30
2023-03-18T22:26:50.113Z,30.10
2023-03-18T22:29:18.081Z,32.50
2023-03-18T22:31:49.465Z,31.80
2023-03-18T22:34:26.502Z,32.30
2023-03-18T22:36:54.517Z,30.50
2023-03-18T22:39:24.609Z,32.90
2023-03-18T22:41:52.763Z,32.00
2023-03-18T22:44:23.664Z,32.20
2023-03-18T22:46:51.934Z,34.80
2023-03-18T22:49:20.395Z,35.20
2023-03-18T22:51:48.663Z,35.30
2023-03-18T22:54:18.723Z,36.90
2023-03-18T22:56:46.935Z,33.00
2023-03-18T22:59:16.197Z,35.10
2023-03-18T23:01:44.565Z,34.00
2023-03-18T23:04:13.035Z,33.80
2023-03-18T23:06:42.545Z,32.50
2023-03-18T23:09:10.677Z,35.70
2023-03-18T23:11:38.907Z,34.80
2023-03-18T23:14:10.138Z,32.10
2023-03-18T23:16:38.275Z,37.60
2023-03-18T23:19:08.985Z,31.30
2023-03-18T23:21:37.312Z,30.20
2023-03-18T23:24:05.988Z,32.20
2023-03-18T23:26:34.167Z,31.40
2023-03-18T23:29:02.570Z,34.60
2023-03-18T23:31:31.678Z,34.00
2023-03-18T23:34:01.821Z,34.50
2023-03-18T23:36:32.283Z,34.50
2023-03-18T23:39:00.694Z,34.40
2023-03-18T23:41:28.644Z,34.20
2023-03-18T23:43:56.753Z,35.50
2023-03-18T23:46:24.937Z,34.60
2023-03-18T23:48:56.540Z,32.90
2023-03-18T23:51:25.583Z,32.80
2023-03-18T23:53:53.580Z,32.60
2023-03-18T23:56:21.634Z,31.60
2023-03-18T23:58:49.868Z,33.20
